Aviation Digital Data Service (ADDS)

Output produced by METARs form (1209 UTC 12 February 2016)
found at http://www.aviationweather.gov/adds/metars/
 
KDEC 121139Z 1212/1312 28007KT 4SM -SN BR OVC035 
     FM121400 29010KT P6SM OVC025 
     FM121600 30012G17KT P6SM OVC018 
     FM122200 31017G27KT P6SM SCT025